• Join FlightAware (Why Join?)
  • Login
  • US Flag 
01:00PM EDT


 

Airport Tracker/Info


-or-


 

Live Flight TrackerFlight Track Log ✈ SWA502 ✈ 18-Jul-2013 ✈ KLAS - KPHX

Flight Track Log - Related Links

Times and Time Zones

All times are in EDT time to prevent confusion due to time zone crossing. See the SWA502 flight status page for this flight to view local times or setup timezone preferences in your user account.

Time Position Orientation Groundspeed Altitude Reporting Facility
EDT Latitude Longitude Course Direction KTS MPH feet Rate Location/Type
01:11AM 36.0756 -115.1658 267° West 182 209 3,200  Level Los Angeles Center
01:13AM 36.0728 -115.2436 267° West 217 250 5,500 2,220 Climbing Los Angeles Center
01:14AM 36.0014 -115.2867 206° Southwest 278 320 8,200 3,180 Climbing Los Angeles Center
01:15AM 35.9272 -115.2664 168° South 298 343 12,100 3,840 Climbing Los Angeles Center
01:16AM 35.9122 -115.1542 99° East 328 377 16,100 3,960 Climbing Los Angeles Center
01:17AM 35.8981 -115.0147 97° East 340 391 20,300 3,360 Climbing Los Angeles Center
01:18AM 35.8603 -114.8858 110° East 394 453 23,000 2,700 Climbing Los Angeles Center
01:19AM 35.8128 -114.7572 114° Southeast 410 472 25,900 2,820 Climbing Los Angeles Center
01:20AM 35.7631 -114.6233 115° Southeast 425 489 28,800 1,500 Climbing Los Angeles Center
01:21AM 35.7131 -114.4881 114° Southeast 432 497 29,000 60 Climbing Los Angeles Center
01:22AM 35.6622 -114.3536 115° Southeast 432 497 29,000  Level Los Angeles Center
01:23AM 35.6075 -114.2108 115° Southeast 436 502 29,000  Level Los Angeles Center
01:24AM 35.5583 -114.0764 114° Southeast 435 501 29,000  Level Los Angeles Center
01:25AM 35.5069 -113.9417 115° Southeast 437 503 29,000  Level Los Angeles Center
01:26AM 35.4414 -113.8164 123° Southeast 437 503 29,000  Level Los Angeles Center
01:27AM 35.3722 -113.6942 125° Southeast 439 505 29,000  Level Los Angeles Center
01:28AM 35.3061 -113.5714 123° Southeast 437 503 29,000  Level Los Angeles Center
01:29AM 35.2267 -113.4261 124° Southeast 434 499 29,000  Level Los Angeles Center
01:30AM 35.1594 -113.3044 124° Southeast 436 502 29,000  Level Los Angeles Center
01:31AM 35.0925 -113.1833 124° Southeast 437 503 29,000  Level Los Angeles Center
01:32AM 35.0272 -113.0625 123° Southeast 436 502 29,000  Level Albuquerque Center
01:33AM 34.9589 -112.9414 125° Southeast 439 505 29,000  Level Albuquerque Center
01:34AM 34.8922 -112.8200 124° Southeast 438 504 29,000  Level Albuquerque Center
01:35AM 34.8225 -112.6950 124° Southeast 447 514 29,000 -480 Level Albuquerque Center
01:36AM 34.7528 -112.5714 124° Southeast 448 516 28,100 -1,500 Descending Albuquerque Center
01:37AM 34.6811 -112.4544 127° Southeast 439 505 26,000 -2,040 Descending Albuquerque Center
01:38AM 34.5919 -112.3731 143° Southeast 408 470 24,100 -2,280 Descending Albuquerque Center
01:39AM 34.5072 -112.2906 141° Southeast 401 461 21,500 -2,040 Descending Albuquerque Center
01:40AM 34.4181 -112.2231 148° Southeast 388 447 20,000 -900 Descending Albuquerque Center
01:41AM 34.3169 -112.1969 168° South 379 436 19,700 -1,620 Descending Albuquerque Center
01:42AM 34.2008 -112.1661 168° South 362 417 16,800 -2,340 Descending Albuquerque Center
01:43AM 34.1056 -112.1453 170° South 353 406 15,000 -1,740 Descending Albuquerque Center
01:44AM 34.0156 -112.1419 178° South 332 382 13,400 -1,740 Descending Albuquerque Center
01:45AM 33.9289 -112.1519 185° South 323 372 11,600 -1,740 Descending Albuquerque Center
01:46AM 33.8447 -112.1683 189° South 315 362 10,000 -1,560 Descending Albuquerque Center
01:47AM 33.7653 -112.1858 190° South 300 345 8,500 -1,140 Descending Albuquerque Center
01:48AM 33.6903 -112.2014 190° South 282 325 7,800 -780 Descending Albuquerque Center
01:49AM 33.6239 -112.2122 188° South 253 291 7,000 -420 Descending Albuquerque Center
01:50AM 33.5586 -112.2292 192° South 242 278 7,000 -480 Level Albuquerque Center
01:51AM 33.4933 -112.2472 193° South 241 277 6,100 -900 Descending Albuquerque Center
01:52AM 33.4342 -112.2614 191° South 245 282 5,300 -1,080 Descending Albuquerque Center
01:53AM 33.4325 -112.1933 92° East 218 251 4,000 -1,260 Descending Albuquerque Center
01:54AM 33.4319 -112.1297 91° East 203 234 2,800 -1,020 Descending Albuquerque Center
01:55AM 33.4333 -112.0833 88° East 137 158 2,000 -780 Descending Phoenix TRACON
01:56AM 33.4333 -112.0333 90° East 121 139 1,300 -720 Descending Phoenix TRACON